GCLPGCRR

Guest
Details From GCLP - Gran Canaria
To GCRR - Lanzarote
Flight Number -
Tags generated
Created
Modified
Stats Distance 120 nm / 222 km
Max Altitude 7,200 ft / 2,195 m
Waypoints 3
Social Downloads 13
Likes 0
Share VATSIM

Download

Looking for another format? Having issues loading an existing format? Contact us
Advertisement - Login to hide

Notes

Basic altitude profile: - Ascent Rate: 2500ft/min - Ascent Speed: 250kts - Cruise Altitude: 35000ft - Cruise Speed: 420kts - Descent Rate: 1500ft/min - Descent Speed: 250kts Options: - Use NATs: no - Use PACOTS: no - Use low airways: yes - Use high airways: no

Route

GCLP FTV GCRR

ID Type Via Altitude Latitude Longitude Leg Dist Tot Dist Heading (true) Name
O GCLP APT - 0 ft / 0 m 27.93154˚ -15.38559˚ - 0 nm - Gran Canaria
FTV VOR - 7,200 ft / 2,195 m 28.43078˚ -13.86450˚ 85 nm 85 nm 69° / 70° FUERTEVENTURA VOR-DME
O GCRR APT - 0 ft / 0 m 28.94547˚ -13.60522˚ 33 nm 119 nm 24° / 24° Lanzarote

Altitude Profile

Advertisement - Login to hide

GCLP

Details ICAO GCLP (LPA)
Name Gran Canaria
Region Canary Islands
Timezone Atlantic/Canary (UTC+1.0)
Stats Elevation 77 ft / 23 m (AMSL)
Location 27.931544° -15.385592°
Runways 2
Magnetic Variation 4.634° W

METAR

GCLP 232300Z 01011KT 9999 SCT055 18/12 Q1019 NOSIG

Decode

TAF

TAF GCLP 232000Z 2321/2421 35010KT 9999 SCT035 TX24/2414Z TN18/2405Z= TAF AMD KLSF 232030Z 2320/2423 24009KT 9999 FEW020 BKN150 QNH3000INS BECMG 2322/2323 36006KT 9999 BKN025 QNH3004INS TEMPO 2323/2402 VRB15G20KT 4800 -TSRA SCT015 OVC025CB BECMG 2405/2406 VRB06KT 9999 OVC015 QNH3006INS BECMG 2408/2409 VRB06KT 4800 BR OVC010 QNH3008INS BECMG 2414/2415 VRB06KT 9999 NSW OVC015 QNH3005INS BECMG 2417/2418 15009KT 8000 -SHRA VCTS SCT020 BKN040CB QNH3002INS TX28/2321Z TN21/2410Z

Decode

Departure Runways

ID Width Length Bearing (true) Bearing (mag) Surface Threshold Offset Overrun Length
03L 148 ft / 45 m 10,203 ft / 3,110 m 21.33° 25.96° Asphalt 0 ft / 0 m 656 ft / 200 m
03R 148 ft / 45 m 10,200 ft / 3,109 m 21.32° 25.95° Asphalt 0 ft / 0 m 673 ft / 205 m
21L 148 ft / 45 m 10,200 ft / 3,109 m 201.33° 205.96° Asphalt 0 ft / 0 m 689 ft / 210 m
21R 148 ft / 45 m 10,203 ft / 3,110 m 201.33° 205.96° Asphalt 0 ft / 0 m 755 ft / 230 m

GCRR

Details ICAO GCRR (ACE)
Name Lanzarote
Region Canary Islands
Timezone Atlantic/Canary (UTC+1.0)
Stats Elevation 0 ft / 0 m (AMSL)
Location 28.945466° -13.605223°
Runways 1
Magnetic Variation 3.926° W

METAR

GCRR 232300Z 35004KT 320V030 9999 FEW040 18/12 Q1019

Decode

TAF

TAF GCRR 232000Z 2321/2421 32005KT 9999 FEW030 TX23/2414Z TN17/2405Z BECMG 2410/2412 33015KT TEMPO 2413/2416 14005KT PROB30 TEMPO 2411/2415 33015G25KT

Decode

Destination Runways

ID Width Length Bearing (true) Bearing (mag) Surface Threshold Offset Overrun Length
03 148 ft / 45 m 7,893 ft / 2,406 m 26.90° 30.83° Asphalt 197 ft / 60 m 197 ft / 60 m
21 148 ft / 45 m 7,893 ft / 2,406 m 206.91° 210.84° Asphalt 197 ft / 60 m 197 ft / 60 m

Approach Navaids

Runway Type Ident Frequency Range Bearing (true) Bearing (mag) Slope Elevation
03 Localiser IRR 109.10 MHz 18 nm / 33 km 26.90° 30.83° - 47 ft / 14 m (AMSL)
03 Glidescope IRR 109.10 MHz 10 nm / 19 km 26.90° 30.83° 3.00° 0 ft / 0 m (AMSL)
03 DME IRR 109.10 MHz 18 nm / 33 km - - - 36 ft / 11 m (AMSL)

Popular Alternatives